Flight Track Log - Related Links

Times and Time Zones

All times are in EDT time to prevent confusion due to time zone crossing. See the WIG1049 flight status page for this flight to view local times or setup timezone preferences in your user account.

Time Position Orientation Groundspeed Altitude Reporting Facility
EDT Latitude Longitude Course Direction KTS MPH feet Rate Location/Type
Wed 07:37:00 PM 44.2954 -69.8759 211° Southwest  Level FlightAware
Wed 07:38:00 PM 44.2557 -69.9091 211° Southwest  Level FlightAware
Wed 07:39:00 PM 44.2161 -69.9423 211° Southwest  Level FlightAware
Wed 07:40:00 PM 44.1764 -69.9755 211° Southwest  Level FlightAware
Wed 07:41:00 PM 44.1367 -70.0086 211° Southwest  Level FlightAware
Wed 07:42:00 PM 44.0970 -70.0416 211° Southwest  Level FlightAware
Wed 07:43:00 PM 44.0572 -70.0747 211° Southwest  Level FlightAware
Wed 07:44:00 PM 44.0175 -70.1076 211° Southwest  Level FlightAware
Wed 07:45:00 PM 43.9778 -70.1406 211° Southwest  Level FlightAware
Wed 07:46:00 PM 43.9380 -70.1734 211° Southwest  Level FlightAware
Wed 07:47:00 PM 43.8983 -70.2063 211° Southwest  Level FlightAware
Wed 07:48:00 PM 43.8585 -70.2391 211° Southwest  Level FlightAware
Wed 07:49:00 PM 43.8187 -70.2718 211° Southwest  Level FlightAware
Wed 07:50:00 PM 43.7789 -70.3045 211° Southwest  Level FlightAware
Wed 07:51:00 PM 43.7391 -70.3372 211° Southwest  Level FlightAware
Wed 07:51:32 PM 43.6000 -70.7167 229° Southwest 200 230 6,000  Level KA90
Wed 07:52:00 PM 43.6993 -70.3698 211° Southwest  Level FlightAware
Wed 07:52:32 PM 43.5500 -70.7500 206° Southwest 201 231 5,900  Level KA90
Wed 07:53:00 PM 43.6670 -70.4156 236° Southwest  Level Estimated
Wed 07:53:44 PM 43.5000 -70.8167 224° Southwest 202 232 5,900  Level KA90
Wed 07:54:00 PM 43.6303 -70.4545 217° Southwest  Level FlightAware
Wed 07:54:44 PM 43.4500 -70.8500 206° Southwest 203 234 5,900  Level KA90
Wed 07:55:00 PM 43.5935 -70.4933 217° Southwest  Level FlightAware
Wed 07:55:32 PM 43.4000 -70.8833 206° Southwest 203 234 5,900  Level KA90
Wed 07:56:00 PM 43.5616 -70.5396 229° Southwest  Level Estimated
Wed 07:56:32 PM 43.3667 -70.9167 216° Southwest 202 232 5,900  Level KA90
Wed 07:57:38 PM 43.3000 -70.9667 209° Southwest 194 223 5,300 -619 Descending KA90
Wed 07:58:38 PM 43.2667 -71.0167 228° Southwest 184 212 4,600 -619 Descending KA90
Wed 07:59:44 PM 43.2167 -71.0500 206° Southwest 181 208 4,000 -286 Descending KA90
Wed 08:00:44 PM 43.1833 -71.0833 216° Southwest 204 235 4,000  Level KA90
Wed 08:01:38 PM 43.1333 -71.1167 206° Southwest 195 224 4,000  Level KA90
Wed 08:02:38 PM 43.0833 -71.1500 206° Southwest 186 214 4,000  Level KA90
Wed 08:03:39 PM 43.0333 -71.1833 206° Southwest 185 213 4,000  Level KA90
Wed 08:04:39 PM 43.0000 -71.2167 216° Southwest 185 213 4,000 -190 Level KA90
Wed 08:05:45 PM 42.9500 -71.2500 206° Southwest 181 208 3,600 -476 Descending KA90
Wed 08:06:45 PM 42.9000 -71.2667 194° South 178 205 3,000 -600 Descending KA90
Wed 08:07:45 PM 42.8500 -71.3167 216° Southwest 182 209 2,400 -632 Descending KA90
Wed 08:08:39 PM 42.8500 -71.3667 270° West 170 196 1,800 -389 Descending KA90
Wed 08:09:33 PM 42.8667 -71.4000 304° West 147 169 1,700 -619 Descending KA90
Wed 08:10:45 PM 42.9167 -71.4167 346° North 123 142 500 -1,000 Descending KA90
Wed 08:12:00 PM 42.9167 -71.4333 231° Southwest  Level FlightAware
Wed 08:19:00 PM 42.9328 -71.4358 231° Southwest  Level Estimated

Login

Don't have an account? Register now (free) for customized features, flight alerts, and more!